• Join FlightAware (Why Join?)
  • Login
  • US Flag 
08:49PM EST


 

Airport Tracker/Info


-or-


 

Live Flight TrackerFlight Track Log ✈ DAL6241 ✈ 28-Apr-2013 ✈ KLGA - KCHO

Flight Track Log - Related Links

Times and Time Zones

All times are in EDT time to prevent confusion due to time zone crossing. See the DAL6241 flight status page for this flight to view local times or setup timezone preferences in your user account.

Time Position Orientation Groundspeed Altitude Reporting Facility
EDT Latitude Longitude Course Direction KTS MPH feet Rate Location/Type
07:44PM 40.7333 -73.8167 246° West 207 238 3,500  Level New York TRACON
07:45PM 40.7833 -73.8000 14° North 250 288 6,500 2,640 Climbing New York TRACON
07:46PM 40.8000 -73.8833 285° West 274 315 8,800 1,740 Climbing New York TRACON
07:47PM 40.8000 -74.0000 270° West 276 318 10,100 1,740 Climbing New York TRACON
07:48PM 40.7833 -74.1000 258° West 301 346 12,400 2,160 Climbing New York TRACON
07:49PM 40.5609 -74.4842 246° West  Level FlightAware Approximate
07:49PM 40.7500 -74.2167 249° West 365 420 14,500  Level New York TRACON
07:51PM 40.6350 -74.4656 239° Southwest 369 425 17,500 1,560 Climbing New York Center
07:52PM 40.5878 -74.5778 241° Southwest 369 425 19,600 2,100 Climbing New York Center
07:53PM 40.5381 -74.6925 240° Southwest 364 419 21,800 1,920 Climbing New York Center
07:54PM 40.4825 -74.7983 235° Southwest 364 419 23,500 1,800 Climbing New York Center
07:55PM 40.4206 -74.9039 232° Southwest 370 426 25,400 1,680 Climbing New York Center
07:56PM 40.3564 -75.0061 231° Southwest 370 426 26,900 1,260 Climbing New York Center
07:57PM 40.2919 -75.1139 232° Southwest 370 426 28,000 540 Climbing New York Center
07:58PM 40.2275 -75.2214 232° Southwest 381 438 28,000  Level New York Center
07:59PM 40.1631 -75.3286 232° Southwest 381 438 28,000  Level New York Center
08:00PM 40.0989 -75.4247 229° Southwest 381 438 28,000  Level New York Center
08:01PM 40.0283 -75.5231 227° Southwest 381 438 28,000  Level New York Center
08:02PM 39.9553 -75.6236 227° Southwest 381 438 28,000  Level New York Center
08:03PM 39.8864 -75.7272 229° Southwest 381 438 28,000  Level New York Center
08:04PM 39.8214 -75.8306 231° Southwest 376 433 28,000  Level New York Center
08:05PM 39.7522 -75.9392 230° Southwest 376 433 28,000 -360 Level New York Center
08:06PM 39.6892 -76.0450 232° Southwest 381 438 27,400 -1,320 Descending New York Center
08:07PM 39.6200 -76.1450 228° Southwest 381 438 25,500 -1,920 Descending New York Center
08:08PM 39.5869 -76.2028 233° Southwest 382 440 24,900 -1,680 Descending Washington Center
08:09PM 39.5283 -76.2883 228° Southwest 359 413 23,300 -1,500 Descending Washington Center
08:10PM 39.4672 -76.3844 231° Southwest 353 406 22,000 -660 Descending Washington Center
08:11PM 39.4039 -76.4833 230° Southwest 353 406 22,000  Level Washington Center
08:12PM 39.3367 -76.5817 229° Southwest 365 420 22,000  Level Washington Center
08:13PM 39.2731 -76.6828 231° Southwest 365 420 22,000  Level Washington Center
08:14PM 39.2097 -76.7808 230° Southwest 365 420 22,000  Level Washington Center
08:15PM 39.1461 -76.8789 230° Southwest 365 420 22,000  Level Washington Center
08:16PM 39.0889 -76.9717 232° Southwest 359 413 22,000  Level Washington Center
08:17PM 39.0294 -77.0667 231° Southwest 352 405 22,000  Level Washington Center
08:18PM 38.9697 -77.1614 231° Southwest 346 398 22,000 -420 Level Washington Center
08:19PM 38.9000 -77.2667 230° Southwest 356 410 21,200 -1,020 Descending Potomac TRACON
08:20PM 38.8333 -77.3667 229° Southwest 342 394 19,900 -1,320 Descending Potomac TRACON
08:21PM 38.7833 -77.4667 237° Southwest 327 376 18,600 -1,020 Descending Potomac TRACON
08:22PM 38.7167 -77.5500 224° Southwest 341 392 17,900 -1,080 Descending Potomac TRACON
08:23PM 38.6667 -77.6500 237° Southwest 333 383 16,500 -1,440 Descending Potomac TRACON
08:24PM 38.6217 -77.7122 227° Southwest 341 392 15,200 -1,860 Descending Washington Center
08:26PM 38.5000 -77.8833 228° Southwest 280 322 11,200 -1,920 Descending Potomac TRACON
08:27PM 38.4667 -77.9667 243° Southwest 267 307 9,500 -1,140 Descending Potomac TRACON
08:28PM 38.4167 -78.0333 226° Southwest 258 297 9,000 -300 Descending Potomac TRACON
08:28PM 38.3667 -78.1000 226° Southwest 248 285 9,000 -420 Level Potomac TRACON
08:30PM 38.3333 -78.1667 238° Southwest 245 282 8,200 -1,260 Descending Potomac TRACON
08:31PM 38.2833 -78.2333 226° Southwest 225 259 6,400 -1,920 Descending Potomac TRACON
08:32PM 38.2500 -78.2833 230° Southwest 220 253 4,400 -1,740 Descending Potomac TRACON
08:33PM 38.2333 -78.3500 252° West 178 205 3,000 -1,140 Descending Potomac TRACON
08:34PM 38.2333 -78.4000 270° West 136 157 2,200 -780 Descending Potomac TRACON
08:35PM 38.2000 -78.4167 201° Southwest 129 148 1,500 -660 Descending Potomac TRACON
08:36PM 38.1667 -78.4333 201° Southwest 132 152 900 -600 Descending Potomac TRACON
08:38PM 38.1333 -78.4500 218° Southwest  Level FlightAware Approximate
08:45PM 38.1386 -78.4529 218° Southwest  Level Estimated
08:46PM 38.1333 -78.4500 218° Southwest  Level FlightAware Approximate
08:47PM 38.1386 -78.4529 218° Southwest  Level Estimated
08:48PM 38.1333 -78.4500 218° Southwest  Level FlightAware Approximate
08:49PM 38.1386 -78.4529 218° Southwest  Level Estimated
08:50PM 38.1333 -78.4500 218° Southwest  Level FlightAware Approximate
08:51PM 38.1386 -78.4529 218° Southwest  Level Estimated